sensor_id;sensor_type;location;lat;lon;timestamp;temperature;humidity
78366;HTU21D;67641;59.864;30.464;2023-07-22T00:02:14;28.88;23.35
78366;HTU21D;67641;59.864;30.464;2023-07-22T00:04:41;28.89;23.43
78366;HTU21D;67641;59.864;30.464;2023-07-22T00:07:08;28.89;23.11
78366;HTU21D;67641;59.864;30.464;2023-07-22T00:11:34;28.83;23.41
78366;HTU21D;67641;59.864;30.464;2023-07-22T00:14:01;28.80;22.82
78366;HTU21D;67641;59.864;30.464;2023-07-22T00:16:28;28.80;22.83
78366;HTU21D;67641;59.864;30.464;2023-07-22T00:18:55;28.78;22.95
78366;HTU21D;67641;59.864;30.464;2023-07-22T00:21:22;28.80;22.78
78366;HTU21D;67641;59.864;30.464;2023-07-22T00:23:49;28.85;22.51
78366;HTU21D;67641;59.864;30.464;2023-07-22T00:26:19;28.86;22.95
78366;HTU21D;67641;59.864;30.464;2023-07-22T00:28:46;28.85;23.22
78366;HTU21D;67641;59.864;30.464;2023-07-22T00:31:37;28.87;23.53
78366;HTU21D;67641;59.864;30.464;2023-07-22T00:34:04;28.85;23.36
78366;HTU21D;67641;59.864;30.464;2023-07-22T00:36:31;28.87;23.56
78366;HTU21D;67641;59.864;30.464;2023-07-22T00:38:58;28.93;22.92
78366;HTU21D;67641;59.864;30.464;2023-07-22T00:41:24;28.95;23.49
78366;HTU21D;67641;59.864;30.464;2023-07-22T00:43:52;28.94;23.90
78366;HTU21D;67641;59.864;30.464;2023-07-22T00:46:19;28.93;23.92
78366;HTU21D;67641;59.864;30.464;2023-07-22T00:48:47;28.90;24.10
78366;HTU21D;67641;59.864;30.464;2023-07-22T00:53:44;28.84;24.11
78366;HTU21D;67641;59.864;30.464;2023-07-22T00:56:11;28.85;24.49
78366;HTU21D;67641;59.864;30.464;2023-07-22T00:58:38;28.84;24.43
78366;HTU21D;67641;59.864;30.464;2023-07-22T01:01:04;28.80;24.56
78366;HTU21D;67641;59.864;30.464;2023-07-22T01:03:33;28.75;25.32
78366;HTU21D;67641;59.864;30.464;2023-07-22T01:06:01;28.76;24.72
78366;HTU21D;67641;59.864;30.464;2023-07-22T01:08:28;28.73;25.09
78366;HTU21D;67641;59.864;30.464;2023-07-22T01:10:55;28.69;25.88
78366;HTU21D;67641;59.864;30.464;2023-07-22T01:15:55;28.74;25.67
78366;HTU21D;67641;59.864;30.464;2023-07-22T01:18:22;28.73;25.63
78366;HTU21D;67641;59.864;30.464;2023-07-22T01:20:49;28.63;25.81
78366;HTU21D;67641;59.864;30.464;2023-07-22T01:23:15;28.62;25.92
78366;HTU21D;67641;59.864;30.464;2023-07-22T01:25:44;28.62;25.98
78366;HTU21D;67641;59.864;30.464;2023-07-22T01:28:10;28.62;26.56
78366;HTU21D;67641;59.864;30.464;2023-07-22T01:30:37;28.58;26.52
78366;HTU21D;67641;59.864;30.464;2023-07-22T01:33:04;28.58;27.11
78366;HTU21D;67641;59.864;30.464;2023-07-22T01:37:45;28.60;26.81
78366;HTU21D;67641;59.864;30.464;2023-07-22T01:40:12;28.60;26.74
78366;HTU21D;67641;59.864;30.464;2023-07-22T01:42:40;28.59;27.32
78366;HTU21D;67641;59.864;30.464;2023-07-22T01:45:08;28.58;27.64
78366;HTU21D;67641;59.864;30.464;2023-07-22T01:47:35;28.58;27.64
78366;HTU21D;67641;59.864;30.464;2023-07-22T01:50:03;28.58;27.42
78366;HTU21D;67641;59.864;30.464;2023-07-22T01:52:31;28.59;28.52
78366;HTU21D;67641;59.864;30.464;2023-07-22T01:54:58;28.57;28.09
78366;HTU21D;67641;59.864;30.464;2023-07-22T01:58:05;28.53;28.18
78366;HTU21D;67641;59.864;30.464;2023-07-22T02:00:31;28.46;28.58
78366;HTU21D;67641;59.864;30.464;2023-07-22T02:02:58;28.47;28.65
78366;HTU21D;67641;59.864;30.464;2023-07-22T02:05:25;28.41;28.13
78366;HTU21D;67641;59.864;30.464;2023-07-22T02:07:53;28.37;28.87
78366;HTU21D;67641;59.864;30.464;2023-07-22T02:10:21;28.35;28.34
78366;HTU21D;67641;59.864;30.464;2023-07-22T02:12:48;28.32;28.62
78366;HTU21D;67641;59.864;30.464;2023-07-22T02:15:15;28.33;28.73
78366;HTU21D;67641;59.864;30.464;2023-07-22T02:20:11;28.31;29.42
78366;HTU21D;67641;59.864;30.464;2023-07-22T02:22:38;28.29;29.13
78366;HTU21D;67641;59.864;30.464;2023-07-22T02:25:07;28.29;29.03
78366;HTU21D;67641;59.864;30.464;2023-07-22T02:27:33;28.28;29.26
78366;HTU21D;67641;59.864;30.464;2023-07-22T02:30:01;28.27;29.10
78366;HTU21D;67641;59.864;30.464;2023-07-22T02:32:28;28.29;29.91
78366;HTU21D;67641;59.864;30.464;2023-07-22T02:34:55;28.27;29.74
78366;HTU21D;67641;59.864;30.464;2023-07-22T02:37:22;28.19;29.25
78366;HTU21D;67641;59.864;30.464;2023-07-22T02:42:01;28.15;29.58
78366;HTU21D;67641;59.864;30.464;2023-07-22T02:44:28;28.15;30.54
78366;HTU21D;67641;59.864;30.464;2023-07-22T02:46:54;28.10;30.22
78366;HTU21D;67641;59.864;30.464;2023-07-22T02:49:22;28.04;30.13
78366;HTU21D;67641;59.864;30.464;2023-07-22T02:51:49;28.05;30.40
78366;HTU21D;67641;59.864;30.464;2023-07-22T02:54:16;28.09;30.15
78366;HTU21D;67641;59.864;30.464;2023-07-22T02:56:43;28.05;30.27
78366;HTU21D;67641;59.864;30.464;2023-07-22T02:59:10;28.02;30.22
78366;HTU21D;67641;59.864;30.464;2023-07-22T03:02:54;28.02;30.64
78366;HTU21D;67641;59.864;30.464;2023-07-22T03:05:32;28.02;30.01
78366;HTU21D;67641;59.864;30.464;2023-07-22T03:07:58;28.02;30.76
78366;HTU21D;67641;59.864;30.464;2023-07-22T03:10:25;27.98;30.55
78366;HTU21D;67641;59.864;30.464;2023-07-22T03:12:52;27.99;30.75
78366;HTU21D;67641;59.864;30.464;2023-07-22T03:15:25;27.90;31.16
78366;HTU21D;67641;59.864;30.464;2023-07-22T03:17:53;27.85;31.48
78366;HTU21D;67641;59.864;30.464;2023-07-22T03:20:19;27.85;30.63
78366;HTU21D;67641;59.864;30.464;2023-07-22T03:24:14;27.89;30.61
78366;HTU21D;67641;59.864;30.464;2023-07-22T03:26:41;27.96;31.19
78366;HTU21D;67641;59.864;30.464;2023-07-22T03:29:08;28.00;31.15
78366;HTU21D;67641;59.864;30.464;2023-07-22T03:31:34;27.99;31.19
78366;HTU21D;67641;59.864;30.464;2023-07-22T03:34:01;28.00;30.69
78366;HTU21D;67641;59.864;30.464;2023-07-22T03:36:28;28.02;31.69
78366;HTU21D;67641;59.864;30.464;2023-07-22T03:38:55;28.03;31.45
78366;HTU21D;67641;59.864;30.464;2023-07-22T03:41:21;28.04;32.34
78366;HTU21D;67641;59.864;30.464;2023-07-22T03:45:51;28.05;31.77
78366;HTU21D;67641;59.864;30.464;2023-07-22T03:48:18;28.06;32.73
78366;HTU21D;67641;59.864;30.464;2023-07-22T03:50:44;28.09;31.63
78366;HTU21D;67641;59.864;30.464;2023-07-22T03:53:12;28.14;31.77
78366;HTU21D;67641;59.864;30.464;2023-07-22T03:55:39;28.10;31.45
78366;HTU21D;67641;59.864;30.464;2023-07-22T03:58:05;28.13;31.72
78366;HTU21D;67641;59.864;30.464;2023-07-22T04:00:32;28.17;32.08
78366;HTU21D;67641;59.864;30.464;2023-07-22T04:02:59;28.20;32.64
78366;HTU21D;67641;59.864;30.464;2023-07-22T04:07:58;28.27;32.53
78366;HTU21D;67641;59.864;30.464;2023-07-22T04:10:24;28.30;32.53
78366;HTU21D;67641;59.864;30.464;2023-07-22T04:12:51;28.34;33.17
78366;HTU21D;67641;59.864;30.464;2023-07-22T04:15:18;28.40;34.22
78366;HTU21D;67641;59.864;30.464;2023-07-22T04:17:44;28.40;34.21
78366;HTU21D;67641;59.864;30.464;2023-07-22T04:20:12;28.37;34.10
78366;HTU21D;67641;59.864;30.464;2023-07-22T04:22:39;28.40;33.99
78366;HTU21D;67641;59.864;30.464;2023-07-22T04:25:06;28.45;34.31
78366;HTU21D;67641;59.864;30.464;2023-07-22T04:29:04;28.52;33.22
78366;HTU21D;67641;59.864;30.464;2023-07-22T04:31:33;28.57;33.02
78366;HTU21D;67641;59.864;30.464;2023-07-22T04:34:00;28.59;32.67
78366;HTU21D;67641;59.864;30.464;2023-07-22T04:36:26;28.64;34.22
78366;HTU21D;67641;59.864;30.464;2023-07-22T04:38:54;28.73;34.89
78366;HTU21D;67641;59.864;30.464;2023-07-22T04:41:20;28.77;33.31
78366;HTU21D;67641;59.864;30.464;2023-07-22T04:43:49;28.78;32.69
78366;HTU21D;67641;59.864;30.464;2023-07-22T04:46:17;28.82;34.05
78366;HTU21D;67641;59.864;30.464;2023-07-22T04:50:42;28.89;34.05
78366;HTU21D;67641;59.864;30.464;2023-07-22T04:53:12;28.89;33.92
78366;HTU21D;67641;59.864;30.464;2023-07-22T04:55:42;28.93;35.66
78366;HTU21D;67641;59.864;30.464;2023-07-22T04:58:08;28.97;36.14
78366;HTU21D;67641;59.864;30.464;2023-07-22T05:00:39;29.03;36.71
78366;HTU21D;67641;59.864;30.464;2023-07-22T05:03:05;29.06;35.33
78366;HTU21D;67641;59.864;30.464;2023-07-22T05:05:32;29.11;35.30
78366;HTU21D;67641;59.864;30.464;2023-07-22T05:07:59;29.16;37.05
78366;HTU21D;67641;59.864;30.464;2023-07-22T05:10:51;29.21;36.09
78366;HTU21D;67641;59.864;30.464;2023-07-22T05:13:18;29.23;34.41
78366;HTU21D;67641;59.864;30.464;2023-07-22T05:15:45;29.28;33.60
78366;HTU21D;67641;59.864;30.464;2023-07-22T05:18:12;29.31;33.38
78366;HTU21D;67641;59.864;30.464;2023-07-22T05:20:39;29.33;34.75
78366;HTU21D;67641;59.864;30.464;2023-07-22T05:23:06;29.41;30.31
78366;HTU21D;67641;59.864;30.464;2023-07-22T05:25:32;29.45;32.29
78366;HTU21D;67641;59.864;30.464;2023-07-22T05:27:59;29.48;31.94
78366;HTU21D;67641;59.864;30.464;2023-07-22T05:32:05;29.56;30.38
78366;HTU21D;67641;59.864;30.464;2023-07-22T05:34:33;29.60;30.41
78366;HTU21D;67641;59.864;30.464;2023-07-22T05:37:00;29.63;30.39
78366;HTU21D;67641;59.864;30.464;2023-07-22T05:39:27;29.67;28.22
78366;HTU21D;67641;59.864;30.464;2023-07-22T05:41:54;29.71;28.61
78366;HTU21D;67641;59.864;30.464;2023-07-22T05:44:21;29.75;28.08
78366;HTU21D;67641;59.864;30.464;2023-07-22T05:46:48;29.79;28.13
78366;HTU21D;67641;59.864;30.464;2023-07-22T05:49:15;29.86;26.57
78366;HTU21D;67641;59.864;30.464;2023-07-22T05:53:25;29.91;27.88
78366;HTU21D;67641;59.864;30.464;2023-07-22T05:55:52;29.93;27.49
78366;HTU21D;67641;59.864;30.464;2023-07-22T05:58:18;29.98;27.56
78366;HTU21D;67641;59.864;30.464;2023-07-22T06:00:45;29.98;27.39
78366;HTU21D;67641;59.864;30.464;2023-07-22T06:03:13;30.02;26.71
78366;HTU21D;67641;59.864;30.464;2023-07-22T06:05:40;30.07;26.21
78366;HTU21D;67641;59.864;30.464;2023-07-22T06:08:07;30.15;26.19
78366;HTU21D;67641;59.864;30.464;2023-07-22T06:10:34;30.20;26.33
78366;HTU21D;67641;59.864;30.464;2023-07-22T06:14:59;30.25;27.65
78366;HTU21D;67641;59.864;30.464;2023-07-22T06:17:26;30.27;30.13
78366;HTU21D;67641;59.864;30.464;2023-07-22T06:19:53;30.28;28.49
78366;HTU21D;67641;59.864;30.464;2023-07-22T06:22:19;30.32;27.84
78366;HTU21D;67641;59.864;30.464;2023-07-22T06:24:46;30.38;27.94
78366;HTU21D;67641;59.864;30.464;2023-07-22T06:27:13;30.36;27.26
78366;HTU21D;67641;59.864;30.464;2023-07-22T06:29:40;30.36;28.34
78366;HTU21D;67641;59.864;30.464;2023-07-22T06:32:07;30.37;27.29
78366;HTU21D;67641;59.864;30.464;2023-07-22T06:36:21;30.44;26.84
78366;HTU21D;67641;59.864;30.464;2023-07-22T06:38:48;30.45;27.65
78366;HTU21D;67641;59.864;30.464;2023-07-22T06:41:15;30.44;28.11
78366;HTU21D;67641;59.864;30.464;2023-07-22T06:43:43;30.44;28.20
78366;HTU21D;67641;59.864;30.464;2023-07-22T06:46:10;30.46;26.93
78366;HTU21D;67641;59.864;30.464;2023-07-22T06:48:38;30.47;27.74
78366;HTU21D;67641;59.864;30.464;2023-07-22T06:51:07;30.49;26.82
78366;HTU21D;67641;59.864;30.464;2023-07-22T06:53:34;30.48;27.14
78366;HTU21D;67641;59.864;30.464;2023-07-22T06:57:41;30.54;25.88
78366;HTU21D;67641;59.864;30.464;2023-07-22T07:00:10;30.56;25.80
78366;HTU21D;67641;59.864;30.464;2023-07-22T07:02:37;30.60;26.28
78366;HTU21D;67641;59.864;30.464;2023-07-22T07:05:04;30.63;27.49
78366;HTU21D;67641;59.864;30.464;2023-07-22T07:07:32;30.66;25.52
78366;HTU21D;67641;59.864;30.464;2023-07-22T07:09:59;30.72;25.67
78366;HTU21D;67641;59.864;30.464;2023-07-22T07:12:26;30.78;25.65
78366;HTU21D;67641;59.864;30.464;2023-07-22T07:14:54;30.75;26.59
78366;HTU21D;67641;59.864;30.464;2023-07-22T07:18:59;30.82;26.83
78366;HTU21D;67641;59.864;30.464;2023-07-22T07:21:28;30.86;25.72
78366;HTU21D;67641;59.864;30.464;2023-07-22T07:23:55;30.87;25.66
78366;HTU21D;67641;59.864;30.464;2023-07-22T07:26:22;30.90;26.25
78366;HTU21D;67641;59.864;30.464;2023-07-22T07:28:51;30.93;26.47
78366;HTU21D;67641;59.864;30.464;2023-07-22T07:31:19;30.94;25.46
78366;HTU21D;67641;59.864;30.464;2023-07-22T07:33:46;30.95;27.72
78366;HTU21D;67641;59.864;30.464;2023-07-22T07:36:14;30.97;26.88
78366;HTU21D;67641;59.864;30.464;2023-07-22T07:39:03;31.02;26.71
78366;HTU21D;67641;59.864;30.464;2023-07-22T07:41:30;31.08;25.52
78366;HTU21D;67641;59.864;30.464;2023-07-22T07:43:58;31.11;25.81
78366;HTU21D;67641;59.864;30.464;2023-07-22T07:46:27;31.13;25.79
78366;HTU21D;67641;59.864;30.464;2023-07-22T07:48:58;31.15;26.18
78366;HTU21D;67641;59.864;30.464;2023-07-22T07:51:31;31.19;25.77
78366;HTU21D;67641;59.864;30.464;2023-07-22T07:53:59;31.23;26.41
78366;HTU21D;67641;59.864;30.464;2023-07-22T07:56:27;31.28;26.44
78366;HTU21D;67641;59.864;30.464;2023-07-22T07:59:13;31.27;26.10
78366;HTU21D;67641;59.864;30.464;2023-07-22T08:01:41;31.35;26.15
78366;HTU21D;67641;59.864;30.464;2023-07-22T08:04:08;31.42;26.16
78366;HTU21D;67641;59.864;30.464;2023-07-22T08:06:36;31.46;26.34
78366;HTU21D;67641;59.864;30.464;2023-07-22T08:09:04;31.50;25.27
78366;HTU21D;67641;59.864;30.464;2023-07-22T08:11:38;31.52;26.15
78366;HTU21D;67641;59.864;30.464;2023-07-22T08:14:05;31.53;25.56
78366;HTU21D;67641;59.864;30.464;2023-07-22T08:16:32;31.53;25.25
78366;HTU21D;67641;59.864;30.464;2023-07-22T08:21:06;31.58;25.78
78366;HTU21D;67641;59.864;30.464;2023-07-22T08:23:35;31.74;26.52
78366;HTU21D;67641;59.864;30.464;2023-07-22T08:26:03;31.78;26.33
78366;HTU21D;67641;59.864;30.464;2023-07-22T08:28:34;31.80;26.28
78366;HTU21D;67641;59.864;30.464;2023-07-22T08:31:01;31.86;27.10
78366;HTU21D;67641;59.864;30.464;2023-07-22T08:33:30;31.88;26.57
78366;HTU21D;67641;59.864;30.464;2023-07-22T08:35:57;31.97;26.91
78366;HTU21D;67641;59.864;30.464;2023-07-22T08:38:25;31.97;27.89
78366;HTU21D;67641;59.864;30.464;2023-07-22T08:41:16;32.02;26.35
78366;HTU21D;67641;59.864;30.464;2023-07-22T08:43:45;32.01;30.07
78366;HTU21D;67641;59.864;30.464;2023-07-22T08:46:15;32.04;26.69
78366;HTU21D;67641;59.864;30.464;2023-07-22T08:48:44;32.08;28.37
78366;HTU21D;67641;59.864;30.464;2023-07-22T08:51:16;32.13;27.93
78366;HTU21D;67641;59.864;30.464;2023-07-22T08:53:45;32.19;29.35
78366;HTU21D;67641;59.864;30.464;2023-07-22T08:56:12;32.24;28.39
78366;HTU21D;67641;59.864;30.464;2023-07-22T08:58:42;32.22;28.48
78366;HTU21D;67641;59.864;30.464;2023-07-22T09:01:20;32.29;28.28
78366;HTU21D;67641;59.864;30.464;2023-07-22T09:03:48;32.32;28.68
78366;HTU21D;67641;59.864;30.464;2023-07-22T09:06:19;32.40;27.69
78366;HTU21D;67641;59.864;30.464;2023-07-22T09:08:46;32.42;28.24
78366;HTU21D;67641;59.864;30.464;2023-07-22T09:11:14;32.44;27.40
78366;HTU21D;67641;59.864;30.464;2023-07-22T09:13:44;32.41;27.71
78366;HTU21D;67641;59.864;30.464;2023-07-22T09:16:13;32.43;28.69
78366;HTU21D;67641;59.864;30.464;2023-07-22T09:18:40;32.50;27.51
78366;HTU21D;67641;59.864;30.464;2023-07-22T09:22:08;32.60;26.26
78366;HTU21D;67641;59.864;30.464;2023-07-22T09:24:34;32.68;26.39
78366;HTU21D;67641;59.864;30.464;2023-07-22T09:27:01;32.75;26.30
78366;HTU21D;67641;59.864;30.464;2023-07-22T09:29:38;32.85;27.79
78366;HTU21D;67641;59.864;30.464;2023-07-22T09:32:06;32.96;26.07
78366;HTU21D;67641;59.864;30.464;2023-07-22T09:34:33;33.04;25.01
78366;HTU21D;67641;59.864;30.464;2023-07-22T09:37:00;33.13;24.13
78366;HTU21D;67641;59.864;30.464;2023-07-22T09:39:27;33.23;25.31
78366;HTU21D;67641;59.864;30.464;2023-07-22T09:44:30;33.42;23.32
78366;HTU21D;67641;59.864;30.464;2023-07-22T09:47:06;33.55;23.65
78366;HTU21D;67641;59.864;30.464;2023-07-22T09:49:33;33.66;22.09
78366;HTU21D;67641;59.864;30.464;2023-07-22T09:52:00;33.77;21.66
78366;HTU21D;67641;59.864;30.464;2023-07-22T09:54:27;33.91;22.69
78366;HTU21D;67641;59.864;30.464;2023-07-22T09:56:57;33.97;18.22
78366;HTU21D;67641;59.864;30.464;2023-07-22T09:59:24;34.05;18.12
78366;HTU21D;67641;59.864;30.464;2023-07-22T10:01:55;34.17;20.54
78366;HTU21D;67641;59.864;30.464;2023-07-22T10:06:34;34.33;18.54
78366;HTU21D;67641;59.864;30.464;2023-07-22T10:09:05;34.47;16.42
78366;HTU21D;67641;59.864;30.464;2023-07-22T10:11:35;34.59;18.30
78366;HTU21D;67641;59.864;30.464;2023-07-22T10:14:05;34.67;18.33
78366;HTU21D;67641;59.864;30.464;2023-07-22T10:16:36;34.89;18.12
78366;HTU21D;67641;59.864;30.464;2023-07-22T10:19:07;35.06;17.28
78366;HTU21D;67641;59.864;30.464;2023-07-22T10:21:36;35.22;17.38
78366;HTU21D;67641;59.864;30.464;2023-07-22T10:26:53;35.50;16.43
78366;HTU21D;67641;59.864;30.464;2023-07-22T10:29:20;35.65;17.27
78366;HTU21D;67641;59.864;30.464;2023-07-22T10:31:47;35.81;18.91
78366;HTU21D;67641;59.864;30.464;2023-07-22T10:34:24;36.03;17.91
78366;HTU21D;67641;59.864;30.464;2023-07-22T10:36:50;36.14;17.88
78366;HTU21D;67641;59.864;30.464;2023-07-22T10:39:28;36.19;16.48
78366;HTU21D;67641;59.864;30.464;2023-07-22T10:42:03;36.33;15.12
78366;HTU21D;67641;59.864;30.464;2023-07-22T10:47:08;36.61;15.79
78366;HTU21D;67641;59.864;30.464;2023-07-22T10:49:45;36.80;15.45
78366;HTU21D;67641;59.864;30.464;2023-07-22T10:52:14;37.10;14.70
78366;HTU21D;67641;59.864;30.464;2023-07-22T10:54:44;37.48;15.13
78366;HTU21D;67641;59.864;30.464;2023-07-22T10:59:52;38.08;13.00
78366;HTU21D;67641;59.864;30.464;2023-07-22T11:02:28;38.47;12.43
78366;HTU21D;67641;59.864;30.464;2023-07-22T11:04:59;39.17;12.23
78366;HTU21D;67641;59.864;30.464;2023-07-22T11:09:00;40.17;12.11
78366;HTU21D;67641;59.864;30.464;2023-07-22T11:11:37;41.13;10.27
78366;HTU21D;67641;59.864;30.464;2023-07-22T11:14:22;42.32;9.58
78366;HTU21D;67641;59.864;30.464;2023-07-22T11:16:51;43.94;8.54
78366;HTU21D;67641;59.864;30.464;2023-07-22T11:19:23;45.32;8.75
78366;HTU21D;67641;59.864;30.464;2023-07-22T11:21:53;47.54;5.88
78366;HTU21D;67641;59.864;30.464;2023-07-22T11:24:23;49.79;4.25
78366;HTU21D;67641;59.864;30.464;2023-07-22T11:26:54;51.38;3.74
78366;HTU21D;67641;59.864;30.464;2023-07-22T11:34:05;53.14;3.57
78366;HTU21D;67641;59.864;30.464;2023-07-22T11:36:34;53.88;3.65
78366;HTU21D;67641;59.864;30.464;2023-07-22T11:39:08;54.67;3.21
78366;HTU21D;67641;59.864;30.464;2023-07-22T11:41:55;55.27;3.37
78366;HTU21D;67641;59.864;30.464;2023-07-22T11:44:27;55.45;3.00
78366;HTU21D;67641;59.864;30.464;2023-07-22T11:47:11;54.52;4.41
78366;HTU21D;67641;59.864;30.464;2023-07-22T11:49:43;54.04;4.51
78366;HTU21D;67641;59.864;30.464;2023-07-22T12:04:17;48.12;7.80
78366;HTU21D;67641;59.864;30.464;2023-07-22T12:06:44;47.50;9.44
78366;HTU21D;67641;59.864;30.464;2023-07-22T12:09:11;47.05;10.21
78366;HTU21D;67641;59.864;30.464;2023-07-22T12:11:38;46.76;10.14
78366;HTU21D;67641;59.864;30.464;2023-07-22T12:14:12;46.49;8.98
78366;HTU21D;67641;59.864;30.464;2023-07-22T12:16:41;45.62;10.03
78366;HTU21D;67641;59.864;30.464;2023-07-22T12:19:12;44.92;11.10
78366;HTU21D;67641;59.864;30.464;2023-07-22T12:21:40;44.39;11.79
78366;HTU21D;67641;59.864;30.464;2023-07-22T12:26:34;44.15;10.88
78366;HTU21D;67641;59.864;30.464;2023-07-22T12:29:08;43.71;11.25
78366;HTU21D;67641;59.864;30.464;2023-07-22T12:31:37;43.27;10.82
78366;HTU21D;67641;59.864;30.464;2023-07-22T12:34:04;43.04;13.07
78366;HTU21D;67641;59.864;30.464;2023-07-22T12:36:31;42.76;12.36
78366;HTU21D;67641;59.864;30.464;2023-07-22T12:38:57;42.67;12.46
78366;HTU21D;67641;59.864;30.464;2023-07-22T12:41:24;42.61;12.20
78366;HTU21D;67641;59.864;30.464;2023-07-22T12:43:51;42.50;12.56
78366;HTU21D;67641;59.864;30.464;2023-07-22T12:49:30;42.34;12.40
78366;HTU21D;67641;59.864;30.464;2023-07-22T12:51:57;42.16;12.88
78366;HTU21D;67641;59.864;30.464;2023-07-22T12:54:33;42.20;12.35
78366;HTU21D;67641;59.864;30.464;2023-07-22T12:57:04;42.00;11.95
78366;HTU21D;67641;59.864;30.464;2023-07-22T12:59:34;42.04;12.23
78366;HTU21D;67641;59.864;30.464;2023-07-22T13:02:09;42.15;11.50
78366;HTU21D;67641;59.864;30.464;2023-07-22T13:04:38;42.25;11.78
78366;HTU21D;67641;59.864;30.464;2023-07-22T13:07:18;42.05;12.88
78366;HTU21D;67641;59.864;30.464;2023-07-22T13:12:14;42.08;11.77
78366;HTU21D;67641;59.864;30.464;2023-07-22T13:14:40;42.15;11.42
78366;HTU21D;67641;59.864;30.464;2023-07-22T13:17:07;42.20;10.38
78366;HTU21D;67641;59.864;30.464;2023-07-22T13:19:34;42.25;11.30
78366;HTU21D;67641;59.864;30.464;2023-07-22T13:22:01;42.17;12.38
78366;HTU21D;67641;59.864;30.464;2023-07-22T13:24:28;42.22;11.99
78366;HTU21D;67641;59.864;30.464;2023-07-22T13:26:54;42.31;12.63
78366;HTU21D;67641;59.864;30.464;2023-07-22T13:29:23;42.47;12.04
78366;HTU21D;67641;59.864;30.464;2023-07-22T13:33:37;42.49;13.39
78366;HTU21D;67641;59.864;30.464;2023-07-22T13:36:04;42.54;12.58
78366;HTU21D;67641;59.864;30.464;2023-07-22T13:38:31;42.45;12.71
78366;HTU21D;67641;59.864;30.464;2023-07-22T13:40:58;42.51;13.60
78366;HTU21D;67641;59.864;30.464;2023-07-22T13:43:25;42.36;12.86
78366;HTU21D;67641;59.864;30.464;2023-07-22T13:45:54;42.11;15.66
78366;HTU21D;67641;59.864;30.464;2023-07-22T13:48:21;41.74;17.09
78366;HTU21D;67641;59.864;30.464;2023-07-22T13:50:48;41.46;16.37
78366;HTU21D;67641;59.864;30.464;2023-07-22T13:54:58;41.22;25.34
78366;HTU21D;67641;59.864;30.464;2023-07-22T13:57:25;41.32;24.14
78366;HTU21D;67641;59.864;30.464;2023-07-22T13:59:53;41.32;23.23
78366;HTU21D;67641;59.864;30.464;2023-07-22T14:02:21;41.04;25.04
78366;HTU21D;67641;59.864;30.464;2023-07-22T14:04:48;41.11;25.01
78366;HTU21D;67641;59.864;30.464;2023-07-22T14:07:15;41.02;23.41
78366;HTU21D;67641;59.864;30.464;2023-07-22T14:09:44;41.15;22.55
78366;HTU21D;67641;59.864;30.464;2023-07-22T14:12:12;41.15;20.41
78366;HTU21D;67641;59.864;30.464;2023-07-22T14:16:11;41.24;19.63
78366;HTU21D;67641;59.864;30.464;2023-07-22T14:18:38;41.12;22.09
78366;HTU21D;67641;59.864;30.464;2023-07-22T14:21:05;40.93;21.74
78366;HTU21D;67641;59.864;30.464;2023-07-22T14:23:32;40.77;19.89
78366;HTU21D;67641;59.864;30.464;2023-07-22T14:25:59;40.61;21.16
78366;HTU21D;67641;59.864;30.464;2023-07-22T14:28:25;40.63;21.26
78366;HTU21D;67641;59.864;30.464;2023-07-22T14:30:53;40.67;21.55
78366;HTU21D;67641;59.864;30.464;2023-07-22T14:33:20;40.66;23.05
78366;HTU21D;67641;59.864;30.464;2023-07-22T14:37:58;40.62;21.74
78366;HTU21D;67641;59.864;30.464;2023-07-22T14:40:25;40.70;23.14
78366;HTU21D;67641;59.864;30.464;2023-07-22T14:42:53;40.51;23.08
78366;HTU21D;67641;59.864;30.464;2023-07-22T14:45:19;40.41;24.16
78366;HTU21D;67641;59.864;30.464;2023-07-22T14:47:46;40.40;23.56
78366;HTU21D;67641;59.864;30.464;2023-07-22T14:50:14;40.33;22.02
78366;HTU21D;67641;59.864;30.464;2023-07-22T14:52:41;40.17;23.58
78366;HTU21D;67641;59.864;30.464;2023-07-22T14:55:09;40.12;22.98
78366;HTU21D;67641;59.864;30.464;2023-07-22T14:57:48;40.07;21.82
78366;HTU21D;67641;59.864;30.464;2023-07-22T15:00:14;39.89;22.39
78366;HTU21D;67641;59.864;30.464;2023-07-22T15:02:41;39.80;22.54
78366;HTU21D;67641;59.864;30.464;2023-07-22T15:05:08;39.74;22.34
78366;HTU21D;67641;59.864;30.464;2023-07-22T15:07:36;39.73;22.58
78366;HTU21D;67641;59.864;30.464;2023-07-22T15:10:03;39.79;21.68
78366;HTU21D;67641;59.864;30.464;2023-07-22T15:12:30;39.81;22.02
78366;HTU21D;67641;59.864;30.464;2023-07-22T15:14:56;39.81;21.93
78366;HTU21D;67641;59.864;30.464;2023-07-22T15:18:53;39.63;21.31
78366;HTU21D;67641;59.864;30.464;2023-07-22T15:21:20;39.56;21.92
78366;HTU21D;67641;59.864;30.464;2023-07-22T15:23:47;39.58;21.05
78366;HTU21D;67641;59.864;30.464;2023-07-22T15:26:13;39.54;21.85
78366;HTU21D;67641;59.864;30.464;2023-07-22T15:28:40;39.65;20.98
78366;HTU21D;67641;59.864;30.464;2023-07-22T15:31:07;39.71;21.10
78366;HTU21D;67641;59.864;30.464;2023-07-22T15:33:34;39.76;20.86
78366;HTU21D;67641;59.864;30.464;2023-07-22T15:36:05;39.76;20.82
78366;HTU21D;67641;59.864;30.464;2023-07-22T15:38:43;39.70;21.00
78366;HTU21D;67641;59.864;30.464;2023-07-22T15:41:09;39.63;22.03
78366;HTU21D;67641;59.864;30.464;2023-07-22T15:43:36;39.61;21.46
78366;HTU21D;67641;59.864;30.464;2023-07-22T15:46:03;39.56;21.43
78366;HTU21D;67641;59.864;30.464;2023-07-22T15:48:30;39.24;21.47
78366;HTU21D;67641;59.864;30.464;2023-07-22T15:50:57;38.92;22.05
78366;HTU21D;67641;59.864;30.464;2023-07-22T15:53:24;38.58;22.62
78366;HTU21D;67641;59.864;30.464;2023-07-22T15:58:23;38.14;23.87
78366;HTU21D;67641;59.864;30.464;2023-07-22T16:00:50;37.94;23.87
78366;HTU21D;67641;59.864;30.464;2023-07-22T16:03:18;37.75;24.47
78366;HTU21D;67641;59.864;30.464;2023-07-22T16:05:44;37.48;25.30
78366;HTU21D;67641;59.864;30.464;2023-07-22T16:08:11;37.33;26.14
78366;HTU21D;67641;59.864;30.464;2023-07-22T16:10:38;37.11;26.23
78366;HTU21D;67641;59.864;30.464;2023-07-22T16:13:05;36.97;26.65
78366;HTU21D;67641;59.864;30.464;2023-07-22T16:15:32;36.85;27.10
78366;HTU21D;67641;59.864;30.464;2023-07-22T16:18:59;36.69;27.41
78366;HTU21D;67641;59.864;30.464;2023-07-22T16:21:26;36.56;28.40
78366;HTU21D;67641;59.864;30.464;2023-07-22T16:23:53;36.53;28.52
78366;HTU21D;67641;59.864;30.464;2023-07-22T16:26:20;36.44;28.77
78366;HTU21D;67641;59.864;30.464;2023-07-22T16:28:46;36.33;28.39
78366;HTU21D;67641;59.864;30.464;2023-07-22T16:31:13;36.30;29.23
78366;HTU21D;67641;59.864;30.464;2023-07-22T16:33:40;36.24;29.81
78366;HTU21D;67641;59.864;30.464;2023-07-22T16:36:10;36.19;29.71
78366;HTU21D;67641;59.864;30.464;2023-07-22T16:40:04;36.00;29.87
78366;HTU21D;67641;59.864;30.464;2023-07-22T16:42:31;35.94;30.11